Time,TemperatureF,DewpointF,PressureIn,WindDirection,WindDirectionDegrees,WindSpeedMPH,WindSpeedGustMPH,Humidity,HourlyPrecipIn,Conditions,Clouds,dailyrainin,SoftwareType,DateUTC
2013-03-01 00:00:00,33.6,30.1,29.77,NNE,24,6.2,6.2,87,0.00,,SKC,0.00,VWS V13.01,2013-03-01 05:00:00,
2013-03-01 00:01:00,33.6,30.1,29.77,NNE,24,6.2,6.2,87,0.00,,SKC,0.00,VWS V13.01,2013-03-01 05:01:00,
2013-03-01 00:06:00,33.6,30.1,29.77,NE,46,3.1,3.1,87,0.00,,SKC,0.00,VWS V13.01,2013-03-01 05:06:00,
2013-03-01 00:11:00,33.6,30.1,29.77,NNW,338,1.7,1.7,87,0.00,,SKC,0.00,VWS V13.01,2013-03-01 05:11:00,
2013-03-01 00:16:00,33.6,30.1,29.77,NNE,24,4.6,4.6,87,0.00,,SKC,0.00,VWS V13.01,2013-03-01 05:16:00,
2013-03-01 00:21:00,33.6,30.1,29.77,North,1,5.5,5.5,87,0.00,,SKC,0.00,VWS V13.01,2013-03-01 05:21:00,
2013-03-01 00:26:00,33.6,30.1,29.77,NW,316,2.9,2.9,87,0.00,,SKC,0.00,VWS V13.01,2013-03-01 05:26:00,
2013-03-01 00:31:00,33.4,30.0,29.77,ENE,68,1.5,1.5,87,0.00,,SKC,0.00,VWS V13.01,2013-03-01 05:31:00,
2013-03-01 00:36:00,33.4,30.0,29.77,North,1,0.0,0.0,87,0.00,,SKC,0.00,VWS V13.01,2013-03-01 05:36:00,
2013-03-01 00:41:00,33.4,30.0,29.77,North,1,1.7,1.7,87,0.00,,SKC,0.00,VWS V13.01,2013-03-01 05:41:00,
2013-03-01 00:46:00,33.4,30.0,29.77,NNW,338,3.8,3.8,87,0.00,,SKC,0.00,VWS V13.01,2013-03-01 05:46:00,
2013-03-01 00:51:00,33.4,30.0,29.77,NNW,338,0.0,0.0,87,0.00,,SKC,0.00,VWS V13.01,2013-03-01 05:51:00,
2013-03-01 00:56:00,33.4,30.0,29.77,NE,46,4.6,4.6,87,0.00,,SKC,0.00,VWS V13.01,2013-03-01 05:56:00,
2013-03-01 01:01:00,33.4,30.0,29.77,North,1,4.9,4.9,87,0.00,,SKC,0.00,VWS V13.01,2013-03-01 06:01:00,
2013-03-01 01:06:00,33.4,30.0,100.00,North,1,4.9,4.9,87,0.00,,SKC,0.00,VWS V13.01,2013-03-01 06:06:00,
2013-03-01 01:11:00,33.4,29.7,29.77,NNW,338,2.0,2.0,86,0.00,,SKC,0.00,VWS V13.01,2013-03-01 06:11:00,
2013-03-01 01:16:00,33.4,29.7,29.77,ENE,68,0.0,0.0,86,0.00,,SKC,0.00,VWS V13.01,2013-03-01 06:16:00,
2013-03-01 01:21:00,33.4,29.7,29.77,NNW,338,0.8,0.8,86,0.00,,SKC,0.00,VWS V13.01,2013-03-01 06:21:00,
2013-03-01 01:26:00,33.4,29.7,29.78,NE,46,0.8,0.8,86,0.00,,SKC,0.00,VWS V13.01,2013-03-01 06:26:00,
2013-03-01 01:31:00,33.4,29.7,29.78,North,1,0.0,0.0,86,0.00,,SKC,0.00,VWS V13.01,2013-03-01 06:31:00,
2013-03-01 01:36:00,33.4,29.7,29.78,NNE,24,0.0,0.0,86,0.00,,SKC,0.00,VWS V13.01,2013-03-01 06:36:00,
2013-03-01 01:41:00,33.4,29.7,29.77,North,1,0.0,0.0,86,0.00,,SKC,0.00,VWS V13.01,2013-03-01 06:41:00,
2013-03-01 01:46:00,33.4,29.7,29.78,NW,316,0.0,0.0,86,0.00,,SKC,0.00,VWS V13.01,2013-03-01 06:46:00,
2013-03-01 01:51:00,33.2,29.5,29.78,NE,46,0.0,0.0,86,0.00,,SKC,0.00,VWS V13.01,2013-03-01 06:51:00,
2013-03-01 01:56:00,33.2,29.5,29.77,ENE,68,0.6,0.6,86,0.00,,SKC,0.00,VWS V13.01,2013-03-01 06:56:00,
2013-03-01 02:01:00,33.2,29.5,29.78,NE,46,1.5,1.5,86,0.00,,SKC,0.00,VWS V13.01,2013-03-01 07:01:00,
2013-03-01 02:06:00,33.0,29.3,29.78,NW,316,3.1,3.1,86,0.00,,SKC,0.00,VWS V13.01,2013-03-01 07:06:00,
2013-03-01 02:11:00,32.9,29.2,29.78,NNE,24,0.0,0.0,86,0.00,,SKC,0.00,VWS V13.01,2013-03-01 07:11:00,
2013-03-01 02:16:00,32.9,29.2,29.78,NNE,24,0.0,0.0,86,0.00,,SKC,0.00,VWS V13.01,2013-03-01 07:16:00,
2013-03-01 02:21:00,32.9,29.2,29.78,North,1,0.4,0.4,86,0.00,,SKC,0.00,VWS V13.01,2013-03-01 07:21:00,
2013-03-01 02:26:00,32.7,29.0,29.78,NNW,338,2.4,2.4,86,0.00,,SKC,0.00,VWS V13.01,2013-03-01 07:26:00,
2013-03-01 02:31:00,32.7,29.0,29.78,North,1,0.0,0.0,86,0.00,,SKC,0.00,VWS V13.01,2013-03-01 07:31:00,
2013-03-01 02:36:00,32.7,29.0,29.78,NNE,24,2.4,2.4,86,0.00,,SKC,0.00,VWS V13.01,2013-03-01 07:36:00,
2013-03-01 02:41:00,32.5,28.8,29.78,NNW,338,0.0,0.0,86,0.00,,SKC,0.00,VWS V13.01,2013-03-01 07:41:00,
2013-03-01 02:46:00,32.5,28.8,29.78,NE,46,0.0,0.0,86,0.00,,SKC,0.00,VWS V13.01,2013-03-01 07:46:00,
2013-03-01 02:51:00,32.5,28.8,29.78,North,1,3.5,3.5,86,0.00,,SKC,0.00,VWS V13.01,2013-03-01 07:51:00,
2013-03-01 02:56:00,32.3,28.6,29.78,NE,46,0.0,0.0,86,0.00,,SKC,0.00,VWS V13.01,2013-03-01 07:56:00,
2013-03-01 03:01:00,32.3,28.6,29.78,North,1,0.0,0.0,86,0.00,,SKC,0.00,VWS V13.01,2013-03-01 08:01:00,
2013-03-01 03:06:00,32.3,28.6,29.79,NNW,338,0.0,0.0,86,0.00,,SKC,0.00,VWS V13.01,2013-03-01 08:06:00,
2013-03-01 03:11:00,32.5,28.8,29.78,NNE,24,0.0,0.0,86,0.00,,SKC,0.00,VWS V13.01,2013-03-01 08:11:00,
2013-03-01 03:16:00,32.3,28.6,29.78,NNW,338,1.7,1.7,86,0.00,,SKC,0.00,VWS V13.01,2013-03-01 08:16:00,
2013-03-01 03:21:00,32.5,28.8,29.78,NNE,24,0.0,0.0,86,0.00,,SKC,0.00,VWS V13.01,2013-03-01 08:21:00,
2013-03-01 03:27:00,32.5,28.8,29.78,ENE,68,0.0,0.0,86,0.00,,SKC,0.00,VWS V13.01,2013-03-01 08:27:00,
2013-03-01 03:31:00,32.5,28.8,29.79,ENE,68,0.0,0.0,86,0.00,,SKC,0.00,VWS V13.01,2013-03-01 08:31:00,
2013-03-01 03:37:00,32.5,28.8,29.79,North,1,0.0,0.0,86,0.00,,SKC,0.00,VWS V13.01,2013-03-01 08:37:00,
2013-03-01 03:41:00,32.5,28.8,29.79,NNW,338,0.0,0.0,86,0.00,,SKC,0.00,VWS V13.01,2013-03-01 08:41:00,
2013-03-01 03:47:00,32.5,28.8,29.79,NE,46,0.0,0.0,86,0.00,,SKC,0.00,VWS V13.01,2013-03-01 08:47:00,
2013-03-01 03:52:00,32.5,28.5,29.79,NNW,338,0.0,0.0,85,0.00,,SKC,0.00,VWS V13.01,2013-03-01 08:52:00,
2013-03-01 03:57:00,32.5,28.5,29.79,NNW,338,1.5,1.5,85,0.00,,SKC,0.00,VWS V13.01,2013-03-01 08:57:00,
2013-03-01 04:02:00,32.5,28.5,29.79,NNW,338,0.0,0.0,85,0.00,,SKC,0.00,VWS V13.01,2013-03-01 09:02:00,
2013-03-01 04:07:00,32.5,28.5,29.79,NE,46,0.0,0.0,85,0.00,,SKC,0.00,VWS V13.01,2013-03-01 09:07:00,
2013-03-01 04:12:00,32.5,28.5,29.79,NNE,24,2.2,2.2,85,0.00,,SKC,0.00,VWS V13.01,2013-03-01 09:12:00,
2013-03-01 04:17:00,32.5,28.5,29.79,North,1,0.0,0.0,85,0.00,,SKC,0.00,VWS V13.01,2013-03-01 09:17:00,
2013-03-01 04:22:00,32.5,28.5,29.79,West,271,0.0,0.0,85,0.00,,SKC,0.00,VWS V13.01,2013-03-01 09:22:00,
2013-03-01 04:27:00,32.3,28.3,29.80,North,1,0.0,0.0,85,0.00,,SKC,0.00,VWS V13.01,2013-03-01 09:27:00,
2013-03-01 04:32:00,32.3,28.3,29.80,North,1,0.6,0.6,85,0.00,,SKC,0.00,VWS V13.01,2013-03-01 09:32:00,
2013-03-01 04:37:00,32.1,28.1,29.80,NNE,24,1.3,1.3,85,0.00,,SKC,0.00,VWS V13.01,2013-03-01 09:37:00,
2013-03-01 04:42:00,32.1,28.1,29.80,ENE,68,0.0,0.0,85,0.00,,SKC,0.00,VWS V13.01,2013-03-01 09:42:00,
2013-03-01 04:47:00,32.1,28.1,29.80,NNE,24,1.5,1.5,85,0.00,,SKC,0.00,VWS V13.01,2013-03-01 09:47:00,
2013-03-01 04:52:00,32.1,28.4,29.80,NNW,338,1.5,1.5,86,0.00,,SKC,0.00,VWS V13.01,2013-03-01 09:52:00,
2013-03-01 04:57:00,32.1,28.4,29.80,NNW,338,0.0,0.0,86,0.00,,SKC,0.00,VWS V13.01,2013-03-01 09:57:00,
2013-03-01 05:02:00,32.1,28.4,29.80,NE,46,3.1,3.1,86,0.00,,SKC,0.00,VWS V13.01,2013-03-01 10:02:00,
2013-03-01 05:07:00,32.0,28.3,29.80,North,1,1.5,1.5,86,0.00,,SKC,0.00,VWS V13.01,2013-03-01 10:07:00,
2013-03-01 05:12:00,31.8,28.1,29.81,NNW,338,3.1,3.1,86,0.00,,SKC,0.00,VWS V13.01,2013-03-01 10:12:00,
2013-03-01 05:17:00,31.8,28.1,29.81,North,1,2.0,2.0,86,0.00,,SKC,0.00,VWS V13.01,2013-03-01 10:17:00,
2013-03-01 05:22:00,31.8,28.1,29.81,NW,316,0.0,0.0,86,0.00,,SKC,0.00,VWS V13.01,2013-03-01 10:22:00,
2013-03-01 05:27:00,31.8,28.1,29.81,ENE,68,0.0,0.0,86,0.00,,SKC,0.00,VWS V13.01,2013-03-01 10:27:00,
2013-03-01 05:32:00,31.8,28.1,29.81,NNW,338,1.3,1.3,86,0.00,,SKC,0.00,VWS V13.01,2013-03-01 10:32:00,
2013-03-01 05:37:00,31.8,28.1,29.81,NNE,24,0.6,0.6,86,0.00,,SKC,0.00,VWS V13.01,2013-03-01 10:37:00,
2013-03-01 05:42:00,31.8,28.1,29.81,NNW,338,0.0,0.0,86,0.00,,SKC,0.00,VWS V13.01,2013-03-01 10:42:00,
2013-03-01 05:47:00,31.8,28.1,29.81,NNW,338,3.5,3.5,86,0.00,,SKC,0.00,VWS V13.01,2013-03-01 10:47:00,
2013-03-01 05:52:00,31.8,28.1,29.81,NW,316,1.1,1.1,86,0.00,,SKC,0.00,VWS V13.01,2013-03-01 10:52:00,
2013-03-01 05:57:00,31.8,27.8,29.81,NNE,24,0.0,0.0,85,0.00,,SKC,0.00,VWS V13.01,2013-03-01 10:57:00,
2013-03-01 06:03:00,31.8,27.8,29.82,North,1,2.4,2.4,85,0.00,,SKC,0.00,VWS V13.01,2013-03-01 11:03:00,
2013-03-01 06:08:00,31.8,27.8,29.82,NNE,24,0.0,0.0,85,0.00,,SKC,0.00,VWS V13.01,2013-03-01 11:08:00,
2013-03-01 06:13:00,31.8,27.8,29.82,North,1,0.0,0.0,85,0.00,,SKC,0.00,VWS V13.01,2013-03-01 11:13:00,
2013-03-01 06:18:00,31.8,27.8,29.82,NNW,338,1.1,1.1,85,0.00,,SKC,0.00,VWS V13.01,2013-03-01 11:18:00,
2013-03-01 06:23:00,31.8,27.8,29.82,NNW,338,2.4,2.4,85,0.00,,SKC,0.00,VWS V13.01,2013-03-01 11:23:00,
2013-03-01 06:28:00,31.6,27.6,29.82,North,1,0.0,0.0,85,0.00,,SKC,0.00,VWS V13.01,2013-03-01 11:28:00,
2013-03-01 06:33:00,31.6,27.3,29.82,NNW,338,0.0,0.0,84,0.00,,SKC,0.00,VWS V13.01,2013-03-01 11:33:00,
2013-03-01 06:38:00,31.6,27.3,29.82,NNE,24,0.0,0.0,84,0.00,,SKC,0.00,VWS V13.01,2013-03-01 11:38:00,
2013-03-01 06:43:00,31.6,27.3,29.82,NNW,338,5.5,5.5,84,0.00,,SKC,0.00,VWS V13.01,2013-03-01 11:43:00,
2013-03-01 06:48:00,31.6,27.3,29.82,NNW,338,1.5,1.5,84,0.00,,SKC,0.00,VWS V13.01,2013-03-01 11:48:00,
2013-03-01 06:53:00,31.8,27.5,29.82,NNW,338,1.5,1.5,84,0.00,,SKC,0.00,VWS V13.01,2013-03-01 11:53:00,
2013-03-01 06:58:00,31.8,27.5,29.83,NNE,24,0.0,0.0,84,0.00,,SKC,0.00,VWS V13.01,2013-03-01 11:58:00,
2013-03-01 07:03:00,31.8,27.5,29.83,ENE,68,0.0,0.0,84,0.00,,SKC,0.00,VWS V13.01,2013-03-01 12:03:00,
2013-03-01 07:08:00,31.8,27.5,29.83,NW,316,3.3,3.3,84,0.00,,SKC,0.00,VWS V13.01,2013-03-01 12:08:00,
2013-03-01 07:13:00,31.8,27.5,29.83,North,1,0.0,0.0,84,0.00,,SKC,0.00,VWS V13.01,2013-03-01 12:13:00,
2013-03-01 07:18:00,31.8,27.5,29.84,NE,46,1.7,1.7,84,0.00,,SKC,0.00,VWS V13.01,2013-03-01 12:18:00,
2013-03-01 07:23:00,31.8,27.5,29.84,NNW,338,0.0,0.0,84,0.00,,SKC,0.00,VWS V13.01,2013-03-01 12:23:00,
2013-03-01 07:28:00,31.8,27.5,29.84,North,1,2.0,2.0,84,0.00,,SKC,0.00,VWS V13.01,2013-03-01 12:28:00,
2013-03-01 07:33:00,31.8,27.5,29.84,ENE,68,2.9,2.9,84,0.00,,SKC,0.00,VWS V13.01,2013-03-01 12:33:00,
2013-03-01 07:38:00,31.8,27.5,29.84,NW,316,2.9,2.9,84,0.00,,SKC,0.00,VWS V13.01,2013-03-01 12:38:00,
2013-03-01 07:43:00,32.1,27.8,29.84,NNW,338,0.0,0.0,84,0.00,,SKC,0.00,VWS V13.01,2013-03-01 12:43:00,
2013-03-01 07:48:00,32.1,27.8,29.84,North,1,2.0,3.1,84,0.00,,SKC,0.00,VWS V13.01,2013-03-01 12:48:00,
2013-03-01 07:53:00,32.1,27.8,29.85,NE,46,2.4,2.4,84,0.00,,SKC,0.00,VWS V13.01,2013-03-01 12:53:00,
2013-03-01 07:58:00,32.1,27.8,29.85,NNW,338,5.3,5.3,84,0.00,,SKC,0.00,VWS V13.01,2013-03-01 12:58:00,
2013-03-01 08:03:00,32.1,27.5,29.85,NW,316,4.9,4.9,83,0.00,,SKC,0.00,VWS V13.01,2013-03-01 13:03:00,
2013-03-01 08:08:00,32.1,27.5,29.85,NNE,24,4.9,4.9,83,0.00,,SKC,0.00,VWS V13.01,2013-03-01 13:08:00,
2013-03-01 08:13:00,32.1,27.5,29.85,North,1,4.4,4.9,83,0.00,,SKC,0.00,VWS V13.01,2013-03-01 13:13:00,
2013-03-01 08:18:00,32.1,27.5,29.85,NNW,338,0.0,2.6,83,0.00,,SKC,0.00,VWS V13.01,2013-03-01 13:18:00,
2013-03-01 08:23:00,32.1,27.5,29.85,NNW,338,4.0,4.0,83,0.00,,SKC,0.00,VWS V13.01,2013-03-01 13:23:00,
2013-03-01 08:28:00,32.3,27.7,29.85,NNE,24,1.3,1.5,83,0.00,,SKC,0.00,VWS V13.01,2013-03-01 13:28:00,
2013-03-01 08:33:00,32.5,27.9,29.85,NNE,24,1.3,1.3,83,0.00,,SKC,0.00,VWS V13.01,2013-03-01 13:33:00,
2013-03-01 08:38:00,32.7,27.8,29.85,NW,316,5.8,5.8,82,0.00,,SKC,0.00,VWS V13.01,2013-03-01 13:38:00,
2013-03-01 08:43:00,32.7,27.5,29.85,NNE,24,4.0,4.0,81,0.00,,SKC,0.00,VWS V13.01,2013-03-01 13:43:00,
2013-03-01 08:48:00,32.9,27.7,29.85,NNW,338,0.0,0.0,81,0.00,,SKC,0.00,VWS V13.01,2013-03-01 13:48:00,
2013-03-01 08:53:00,33.2,28.0,29.85,NW,316,4.2,4.2,81,0.00,,SKC,0.00,VWS V13.01,2013-03-01 13:53:00,
2013-03-01 08:58:00,33.4,28.2,29.85,North,1,4.6,4.6,81,0.00,,SKC,0.00,VWS V13.01,2013-03-01 13:58:00,
2013-03-01 09:03:00,33.4,27.9,29.85,NW,316,2.6,5.8,80,0.00,,SKC,0.00,VWS V13.01,2013-03-01 14:03:00,
2013-03-01 09:08:00,33.4,27.6,29.85,NNE,24,5.8,5.8,79,0.00,,SKC,0.00,VWS V13.01,2013-03-01 14:08:00,
2013-03-01 09:13:00,33.6,27.8,29.85,North,1,1.1,4.2,79,0.00,,SKC,0.00,VWS V13.01,2013-03-01 14:13:00,
2013-03-01 09:18:00,33.6,27.8,29.85,NW,316,3.3,4.9,79,0.00,,SKC,0.00,VWS V13.01,2013-03-01 14:18:00,
2013-03-01 09:23:00,33.6,27.8,29.86,NNE,24,5.1,5.1,79,0.00,,SKC,0.00,VWS V13.01,2013-03-01 14:23:00,
2013-03-01 09:28:00,33.9,28.1,29.86,NE,46,0.0,0.0,79,0.00,,SKC,0.00,VWS V13.01,2013-03-01 14:28:00,
2013-03-01 09:33:00,34.3,28.5,29.86,NNE,24,0.0,0.0,79,0.00,,SKC,0.00,VWS V13.01,2013-03-01 14:33:00,
2013-03-01 09:38:00,34.3,28.2,29.86,NE,46,0.0,0.0,78,0.00,,SKC,0.00,VWS V13.01,2013-03-01 14:38:00,
2013-03-01 09:43:00,34.8,28.3,29.86,NE,46,0.0,2.4,77,0.00,,SKC,0.00,VWS V13.01,2013-03-01 14:43:00,
2013-03-01 09:48:00,34.8,28.0,29.86,North,1,2.2,2.2,76,0.00,,SKC,0.00,VWS V13.01,2013-03-01 14:48:00,
2013-03-01 09:53:00,34.8,28.3,29.86,NNE,24,4.6,4.6,77,0.00,,SKC,0.00,VWS V13.01,2013-03-01 14:53:00,
2013-03-01 09:58:00,34.8,28.0,29.86,NNW,338,2.6,2.6,76,0.00,,SKC,0.00,VWS V13.01,2013-03-01 14:58:00,
2013-03-01 10:03:00,34.8,28.3,29.86,WNW,294,0.0,0.0,77,0.00,,SKC,0.00,VWS V13.01,2013-03-01 15:03:00,
2013-03-01 10:08:00,35.2,28.4,29.86,NW,316,0.4,0.4,76,0.00,,SKC,0.00,VWS V13.01,2013-03-01 15:08:00,
2013-03-01 10:13:00,35.2,28.1,29.86,NNE,24,0.6,0.6,75,0.00,,SKC,0.00,VWS V13.01,2013-03-01 15:13:00,
2013-03-01 10:18:00,35.2,28.1,29.86,NNE,24,5.1,5.1,75,0.00,,SKC,0.00,VWS V13.01,2013-03-01 15:18:00,
2013-03-01 10:23:00,35.4,28.3,29.85,NE,46,3.3,3.3,75,0.00,,SKC,0.00,VWS V13.01,2013-03-01 15:23:00,
2013-03-01 10:28:00,35.7,28.6,29.86,NNE,24,4.4,4.4,75,0.00,,SKC,0.00,VWS V13.01,2013-03-01 15:28:00,
2013-03-01 10:33:00,35.7,28.2,29.86,NE,46,0.0,0.0,74,0.00,,SKC,0.00,VWS V13.01,2013-03-01 15:33:00,
2013-03-01 10:38:00,35.7,28.2,29.86,North,1,5.5,5.5,74,0.00,,SKC,0.00,VWS V13.01,2013-03-01 15:38:00,
2013-03-01 10:43:00,35.4,28.0,29.86,NNW,338,1.1,1.1,74,0.00,,SKC,0.00,VWS V13.01,2013-03-01 15:43:00,
2013-03-01 10:48:00,35.4,28.0,29.86,NNE,24,0.0,0.0,74,0.00,,SKC,0.00,VWS V13.01,2013-03-01 15:48:00,
2013-03-01 10:53:00,35.4,28.0,29.86,NW,316,0.0,0.0,74,0.00,,SKC,0.00,VWS V13.01,2013-03-01 15:53:00,
2013-03-01 10:58:00,35.7,28.2,29.86,NE,46,0.6,0.6,74,0.00,,SKC,0.00,VWS V13.01,2013-03-01 15:58:00,
2013-03-01 11:03:00,36.3,28.8,29.86,ESE,114,1.5,1.5,74,0.00,,SKC,0.00,VWS V13.01,2013-03-01 16:03:00,
2013-03-01 11:08:00,36.5,29.0,29.86,NNE,24,2.9,2.9,74,0.00,,SKC,0.00,VWS V13.01,2013-03-01 16:08:00,
2013-03-01 11:13:00,36.8,28.6,29.86,NNE,24,2.4,2.4,72,0.00,,SKC,0.00,VWS V13.01,2013-03-01 16:13:00,
2013-03-01 11:18:00,36.6,28.1,29.86,NNE,24,5.1,5.1,71,0.00,,SKC,0.00,VWS V13.01,2013-03-01 16:18:00,
2013-03-01 11:23:00,36.3,27.8,29.86,NNW,338,2.9,2.9,71,0.00,,SKC,0.00,VWS V13.01,2013-03-01 16:23:00,
2013-03-01 11:28:00,36.1,28.0,29.86,NW,316,7.8,7.8,72,0.00,,SKC,0.00,VWS V13.01,2013-03-01 16:28:00,
2013-03-01 11:33:00,36.1,28.0,29.87,ENE,68,1.7,1.7,72,0.00,,SKC,0.00,VWS V13.01,2013-03-01 16:33:00,
2013-03-01 11:38:00,36.3,28.1,29.87,North,1,4.6,4.6,72,0.00,,SKC,0.00,VWS V13.01,2013-03-01 16:38:00,
2013-03-01 11:43:00,36.3,28.1,29.87,NNW,338,5.3,5.3,72,0.00,,SKC,0.00,VWS V13.01,2013-03-01 16:43:00,
2013-03-01 11:48:00,36.3,28.1,29.86,NW,316,1.3,1.3,72,0.00,,SKC,0.00,VWS V13.01,2013-03-01 16:48:00,
2013-03-01 11:53:00,36.6,28.8,29.86,NNW,338,6.2,6.2,73,0.00,,SKC,0.00,VWS V13.01,2013-03-01 16:53:00,
2013-03-01 11:58:00,37.0,29.2,29.86,NNW,338,1.5,1.5,73,0.00,,SKC,0.00,VWS V13.01,2013-03-01 16:58:00,
2013-03-01 12:03:00,37.2,29.4,29.86,NW,316,1.1,1.1,73,0.00,,SKC,0.00,VWS V13.01,2013-03-01 17:03:00,
2013-03-01 12:08:00,37.7,29.5,29.87,NNE,24,0.0,0.0,72,0.00,,SKC,0.00,VWS V13.01,2013-03-01 17:08:00,
2013-03-01 12:13:00,37.4,28.9,29.86,NNW,338,2.6,2.6,71,0.00,,SKC,0.00,VWS V13.01,2013-03-01 17:13:00,
2013-03-01 12:18:00,37.2,29.0,29.86,NNW,338,2.6,2.6,72,0.00,,SKC,0.00,VWS V13.01,2013-03-01 17:18:00,
2013-03-01 12:23:00,37.2,29.0,29.86,North,1,2.0,2.0,72,0.00,,SKC,0.00,VWS V13.01,2013-03-01 17:23:00,
2013-03-01 12:28:00,37.2,29.0,29.86,NNW,338,4.6,4.6,72,0.00,,SKC,0.00,VWS V13.01,2013-03-01 17:28:00,
2013-03-01 12:33:00,37.5,29.3,29.86,NNW,338,5.3,5.3,72,0.00,,SKC,0.00,VWS V13.01,2013-03-01 17:33:00,
2013-03-01 12:38:00,37.7,29.5,29.86,NNW,338,0.0,0.0,72,0.00,,SKC,0.00,VWS V13.01,2013-03-01 17:38:00,
2013-03-01 12:43:00,38.3,30.1,29.86,NNW,338,6.9,6.9,72,0.00,,SKC,0.00,VWS V13.01,2013-03-01 17:43:00,
2013-03-01 12:48:00,38.3,29.7,29.86,North,1,4.2,4.2,71,0.00,,SKC,0.00,VWS V13.01,2013-03-01 17:48:00,
2013-03-01 12:53:00,38.4,29.8,29.86,ENE,68,6.0,6.0,71,0.00,,SKC,0.00,VWS V13.01,2013-03-01 17:53:00,
2013-03-01 12:58:00,38.3,29.4,29.86,NNW,338,4.4,4.4,70,0.00,,SKC,0.00,VWS V13.01,2013-03-01 17:58:00,
2013-03-01 13:04:00,37.9,29.0,29.86,North,1,6.2,6.2,70,0.00,,SKC,0.00,VWS V13.01,2013-03-01 18:04:00,
2013-03-01 13:09:00,37.7,29.2,29.86,NE,46,2.0,2.0,71,0.00,,SKC,0.00,VWS V13.01,2013-03-01 18:09:00,
2013-03-01 13:14:00,37.4,28.9,29.86,NNW,338,3.8,3.8,71,0.00,,SKC,0.00,VWS V13.01,2013-03-01 18:14:00,
2013-03-01 13:19:00,36.8,28.3,29.86,NNW,338,4.9,4.9,71,0.00,,SKC,0.00,VWS V13.01,2013-03-01 18:19:00,
2013-03-01 13:24:00,36.5,28.0,29.86,North,1,1.5,1.5,71,0.00,,SKC,0.00,VWS V13.01,2013-03-01 18:24:00,
2013-03-01 13:29:00,36.3,28.1,29.86,NNW,338,5.5,5.5,72,0.00,,SKC,0.00,VWS V13.01,2013-03-01 18:29:00,
2013-03-01 13:34:00,36.3,28.1,29.86,NE,46,3.1,3.1,72,0.00,,SKC,0.00,VWS V13.01,2013-03-01 18:34:00,
2013-03-01 13:39:00,36.3,28.1,29.86,NNW,338,3.1,3.1,72,0.00,,SKC,0.00,VWS V13.01,2013-03-01 18:39:00,
2013-03-01 13:44:00,36.5,28.4,29.86,NNW,338,5.3,5.3,72,0.00,,SKC,0.00,VWS V13.01,2013-03-01 18:44:00,
2013-03-01 13:49:00,36.3,28.1,29.86,NW,316,4.0,4.2,72,0.00,,SKC,0.00,VWS V13.01,2013-03-01 18:49:00,
2013-03-01 13:54:00,36.3,28.1,29.86,NNE,24,2.9,2.9,72,0.00,,SKC,0.00,VWS V13.01,2013-03-01 18:54:00,
2013-03-01 13:59:00,36.3,28.1,29.86,North,1,0.0,0.0,72,0.00,,SKC,0.00,VWS V13.01,2013-03-01 18:59:00,
2013-03-01 14:04:00,36.5,28.0,29.86,NNW,338,2.9,2.9,71,0.00,,SKC,0.00,VWS V13.01,2013-03-01 19:04:00,
2013-03-01 14:09:00,36.5,28.0,29.86,North,1,1.3,1.3,71,0.00,,SKC,0.00,VWS V13.01,2013-03-01 19:09:00,
2013-03-01 14:14:00,36.3,27.8,29.86,NNW,338,2.6,2.6,71,0.00,,SKC,0.00,VWS V13.01,2013-03-01 19:14:00,
2013-03-01 14:19:00,36.1,27.6,29.86,ENE,68,1.3,1.3,71,0.00,,SKC,0.00,VWS V13.01,2013-03-01 19:19:00,
2013-03-01 14:24:00,36.1,27.6,29.87,NNE,24,5.8,5.8,71,0.00,,SKC,0.00,VWS V13.01,2013-03-01 19:24:00,
2013-03-01 14:29:00,35.9,27.8,29.87,North,1,3.8,3.8,72,0.00,,SKC,0.00,VWS V13.01,2013-03-01 19:29:00,
2013-03-01 14:34:00,35.9,27.8,29.87,NNW,338,4.2,4.2,72,0.00,,SKC,0.00,VWS V13.01,2013-03-01 19:34:00,
2013-03-01 14:39:00,35.7,27.2,29.87,North,1,5.3,5.3,71,0.00,,SKC,0.00,VWS V13.01,2013-03-01 19:39:00,
2013-03-01 14:44:00,35.2,26.8,29.87,NNW,338,5.1,5.1,71,0.00,,SKC,0.00,VWS V13.01,2013-03-01 19:44:00,
2013-03-01 14:49:00,35.2,26.8,29.87,NNW,338,0.0,2.9,71,0.00,,SKC,0.00,VWS V13.01,2013-03-01 19:49:00,
2013-03-01 14:54:00,34.8,26.4,29.87,North,1,6.7,6.7,71,0.00,,SKC,0.00,VWS V13.01,2013-03-01 19:54:00,
2013-03-01 14:59:00,34.8,26.4,29.87,NNW,338,5.3,5.3,71,0.00,,SKC,0.00,VWS V13.01,2013-03-01 19:59:00,
2013-03-01 15:04:00,34.8,26.4,29.87,NE,46,4.9,4.9,71,0.00,,SKC,0.00,VWS V13.01,2013-03-01 20:04:00,
2013-03-01 15:09:00,34.8,26.4,29.87,NE,46,3.1,3.1,71,0.00,,SKC,0.00,VWS V13.01,2013-03-01 20:09:00,
2013-03-01 15:14:00,34.8,26.4,29.87,ESE,114,3.1,3.1,71,0.00,,SKC,0.00,VWS V13.01,2013-03-01 20:14:00,
2013-03-01 15:19:00,34.8,26.0,29.87,NNE,24,1.7,6.7,70,0.00,,SKC,0.00,VWS V13.01,2013-03-01 20:19:00,
2013-03-01 15:24:00,34.8,26.4,29.87,NNE,24,0.0,0.0,71,0.00,,SKC,0.00,VWS V13.01,2013-03-01 20:24:00,
2013-03-01 15:29:00,34.8,26.0,29.88,NE,46,1.1,1.1,70,0.00,,SKC,0.00,VWS V13.01,2013-03-01 20:29:00,
2013-03-01 15:34:00,34.8,26.0,29.88,North,1,4.6,4.6,70,0.00,,SKC,0.00,VWS V13.01,2013-03-01 20:34:00,
2013-03-01 15:39:00,34.8,26.0,29.88,NNE,24,6.4,6.4,70,0.00,,SKC,0.00,VWS V13.01,2013-03-01 20:39:00,
2013-03-01 15:44:00,34.8,26.0,29.88,North,1,1.3,1.3,70,0.00,,SKC,0.00,VWS V13.01,2013-03-01 20:44:00,
2013-03-01 15:49:00,34.8,26.0,29.88,NE,46,3.3,3.8,70,0.00,,SKC,0.00,VWS V13.01,2013-03-01 20:49:00,
2013-03-01 15:54:00,34.8,26.0,29.88,East,91,2.2,4.0,70,0.00,,SKC,0.00,VWS V13.01,2013-03-01 20:54:00,
2013-03-01 15:59:00,34.8,26.0,29.88,NNW,338,3.8,3.8,70,0.00,,SKC,0.00,VWS V13.01,2013-03-01 20:59:00,
2013-03-01 16:04:00,35.0,26.2,29.88,North,1,2.4,2.4,70,0.00,,SKC,0.00,VWS V13.01,2013-03-01 21:04:00,
2013-03-01 16:09:00,35.2,26.4,29.88,NNW,338,1.1,1.1,70,0.00,,SKC,0.00,VWS V13.01,2013-03-01 21:09:00,
2013-03-01 16:14:00,35.2,26.1,29.88,NW,316,4.0,4.0,69,0.00,,SKC,0.00,VWS V13.01,2013-03-01 21:14:00,
2013-03-01 16:19:00,35.2,26.1,29.88,North,1,0.0,0.0,69,0.00,,SKC,0.00,VWS V13.01,2013-03-01 21:19:00,
2013-03-01 16:24:00,35.2,26.1,29.89,NNW,338,0.0,0.0,69,0.00,,SKC,0.00,VWS V13.01,2013-03-01 21:24:00,
2013-03-01 16:29:00,35.2,26.1,29.88,NNW,338,4.4,4.4,69,0.00,,SKC,0.00,VWS V13.01,2013-03-01 21:29:00,
2013-03-01 16:34:00,35.2,26.1,29.89,NE,46,0.0,6.4,69,0.00,,SKC,0.00,VWS V13.01,2013-03-01 21:34:00,
2013-03-01 16:39:00,35.2,26.1,29.89,NNE,24,1.1,1.1,69,0.00,,SKC,0.00,VWS V13.01,2013-03-01 21:39:00,
2013-03-01 16:44:00,34.8,25.7,29.89,NE,46,0.0,0.0,69,0.00,,SKC,0.00,VWS V13.01,2013-03-01 21:44:00,
2013-03-01 16:49:00,34.8,25.7,29.89,NNE,24,0.0,1.7,69,0.00,,SKC,0.00,VWS V13.01,2013-03-01 21:49:00,
2013-03-01 16:54:00,34.8,26.0,29.89,NNE,24,0.0,0.0,70,0.00,,SKC,0.00,VWS V13.01,2013-03-01 21:54:00,
2013-03-01 16:59:00,34.7,25.9,29.89,North,1,6.0,6.0,70,0.00,,SKC,0.00,VWS V13.01,2013-03-01 21:59:00,
2013-03-01 17:04:00,34.7,25.9,29.90,NE,46,0.0,0.0,70,0.00,,SKC,0.00,VWS V13.01,2013-03-01 22:04:00,
2013-03-01 17:09:00,34.5,26.1,29.90,NE,46,4.6,4.6,71,0.00,,SKC,0.00,VWS V13.01,2013-03-01 22:09:00,
2013-03-01 17:14:00,34.5,26.1,29.89,NNW,338,1.7,1.7,71,0.00,,SKC,0.00,VWS V13.01,2013-03-01 22:14:00,
2013-03-01 17:19:00,34.3,25.9,29.90,NNW,338,3.3,3.3,71,0.00,,SKC,0.00,VWS V13.01,2013-03-01 22:19:00,
2013-03-01 17:24:00,34.1,26.0,29.90,NW,316,1.5,1.5,72,0.00,,SKC,0.00,VWS V13.01,2013-03-01 22:24:00,
2013-03-01 17:29:00,34.1,26.0,29.90,NW,316,0.0,0.0,72,0.00,,SKC,0.00,VWS V13.01,2013-03-01 22:29:00,
2013-03-01 17:34:00,33.9,26.2,29.90,NW,316,4.9,4.9,73,0.00,,SKC,0.00,VWS V13.01,2013-03-01 22:34:00,
2013-03-01 17:39:00,33.6,26.2,29.90,NNW,338,1.5,1.5,74,0.00,,SKC,0.00,VWS V13.01,2013-03-01 22:39:00,
2013-03-01 17:44:00,33.6,26.2,29.90,NE,46,2.4,2.4,74,0.00,,SKC,0.00,VWS V13.01,2013-03-01 22:44:00,
2013-03-01 17:49:00,33.4,26.3,29.91,NW,316,0.8,0.8,75,0.00,,SKC,0.00,VWS V13.01,2013-03-01 22:49:00,
2013-03-01 17:54:00,33.4,26.3,29.91,NNW,338,3.1,3.1,75,0.00,,SKC,0.00,VWS V13.01,2013-03-01 22:54:00,
2013-03-01 17:59:00,33.2,26.5,29.91,NNW,338,0.0,0.0,76,0.00,,SKC,0.00,VWS V13.01,2013-03-01 22:59:00,
2013-03-01 18:04:00,33.2,26.5,29.91,North,1,3.3,3.3,76,0.00,,SKC,0.00,VWS V13.01,2013-03-01 23:04:00,
2013-03-01 18:09:00,33.0,26.3,29.92,NNW,338,2.0,2.0,76,0.00,,SKC,0.00,VWS V13.01,2013-03-01 23:09:00,
2013-03-01 18:14:00,33.0,26.6,29.91,North,1,0.6,0.6,77,0.00,,SKC,0.00,VWS V13.01,2013-03-01 23:14:00,
2013-03-01 18:19:00,33.0,26.6,29.91,ENE,68,1.7,1.7,77,0.00,,SKC,0.00,VWS V13.01,2013-03-01 23:19:00,
2013-03-01 18:24:00,32.9,26.5,29.92,NNE,24,0.0,0.0,77,0.00,,SKC,0.00,VWS V13.01,2013-03-01 23:24:00,
2013-03-01 18:29:00,32.9,26.5,29.91,NNW,338,2.0,2.0,77,0.00,,SKC,0.00,VWS V13.01,2013-03-01 23:29:00,
2013-03-01 18:34:00,32.9,26.8,29.91,NE,46,0.0,0.0,78,0.00,,SKC,0.00,VWS V13.01,2013-03-01 23:34:00,
2013-03-01 18:39:00,32.7,26.6,29.91,NW,316,0.0,0.0,78,0.00,,SKC,0.00,VWS V13.01,2013-03-01 23:39:00,
2013-03-01 18:44:00,32.7,26.6,29.91,ENE,68,4.6,4.6,78,0.00,,SKC,0.00,VWS V13.01,2013-03-01 23:44:00,
2013-03-01 18:49:00,32.7,26.6,29.92,NNW,338,0.0,0.0,78,0.00,,SKC,0.00,VWS V13.01,2013-03-01 23:49:00,
2013-03-01 18:54:00,32.7,26.6,29.92,North,1,0.0,0.0,78,0.00,,SKC,0.00,VWS V13.01,2013-03-01 23:54:00,
2013-03-01 18:59:00,32.7,26.6,29.92,NNW,338,0.0,0.0,78,0.00,,SKC,0.00,VWS V13.01,2013-03-01 23:59:00,
2013-03-01 19:04:00,32.7,26.6,29.92,ENE,68,0.0,0.0,78,0.00,,SKC,0.00,VWS V13.01,2013-03-02 00:04:00,
2013-03-01 19:09:00,32.7,26.6,29.92,NW,316,2.9,2.9,78,0.00,,SKC,0.00,VWS V13.01,2013-03-02 00:09:00,
2013-03-01 19:14:00,32.7,26.9,29.92,NNW,338,3.3,3.3,79,0.00,,SKC,0.00,VWS V13.01,2013-03-02 00:14:00,
2013-03-01 19:19:00,32.7,26.9,29.92,NW,316,3.1,3.1,79,0.00,,SKC,0.00,VWS V13.01,2013-03-02 00:19:00,
2013-03-01 19:24:00,32.7,26.9,29.92,NNE,24,2.2,2.2,79,0.00,,SKC,0.00,VWS V13.01,2013-03-02 00:24:00,
2013-03-01 19:29:00,32.7,26.6,29.92,NE,46,2.0,2.0,78,0.00,,SKC,0.00,VWS V13.01,2013-03-02 00:29:00,
2013-03-01 19:34:00,32.7,26.6,29.92,North,1,0.0,0.0,78,0.00,,SKC,0.00,VWS V13.01,2013-03-02 00:34:00,
2013-03-01 19:39:00,32.7,26.9,29.92,NE,46,0.0,0.0,79,0.00,,SKC,0.00,VWS V13.01,2013-03-02 00:39:00,
2013-03-01 19:44:00,32.7,26.9,29.92,NNW,338,4.2,4.2,79,0.00,,SKC,0.00,VWS V13.01,2013-03-02 00:44:00,
2013-03-01 19:49:00,32.7,26.9,29.92,ENE,68,0.6,0.6,79,0.00,,SKC,0.00,VWS V13.01,2013-03-02 00:49:00,
2013-03-01 19:54:00,32.7,26.9,29.92,NW,316,4.9,4.9,79,0.00,,SKC,0.00,VWS V13.01,2013-03-02 00:54:00,
2013-03-01 19:59:00,32.7,26.9,29.93,NW,316,0.0,0.0,79,0.00,,SKC,0.00,VWS V13.01,2013-03-02 00:59:00,
2013-03-01 20:04:00,32.5,26.7,29.93,North,1,2.9,2.9,79,0.00,,SKC,0.00,VWS V13.01,2013-03-02 01:04:00,
2013-03-01 20:09:00,32.5,26.7,29.92,NNE,24,3.1,3.1,79,0.00,,SKC,0.00,VWS V13.01,2013-03-02 01:09:00,
2013-03-01 20:14:00,32.5,26.7,29.92,North,1,3.8,3.8,79,0.00,,SKC,0.00,VWS V13.01,2013-03-02 01:14:00,
2013-03-01 20:19:00,32.5,26.7,29.92,NE,46,1.3,1.3,79,0.00,,SKC,0.00,VWS V13.01,2013-03-02 01:19:00,
2013-03-01 20:25:00,32.5,26.7,29.92,NNW,338,4.9,4.9,79,0.00,,SKC,0.00,VWS V13.01,2013-03-02 01:25:00,
2013-03-01 20:30:00,32.5,26.7,29.93,NW,316,0.0,0.0,79,0.00,,SKC,0.00,VWS V13.01,2013-03-02 01:30:00,
2013-03-01 20:34:00,32.5,26.7,29.93,NNW,338,2.0,2.0,79,0.00,,SKC,0.00,VWS V13.01,2013-03-02 01:34:00,
2013-03-01 20:40:00,32.3,26.5,29.93,NNW,338,1.5,1.5,79,0.00,,SKC,0.00,VWS V13.01,2013-03-02 01:40:00,
2013-03-01 20:45:00,32.3,26.5,29.92,North,1,4.4,4.4,79,0.00,,SKC,0.00,VWS V13.01,2013-03-02 01:45:00,
2013-03-01 20:50:00,32.3,26.5,29.92,NNE,24,2.0,2.0,79,0.00,,SKC,0.00,VWS V13.01,2013-03-02 01:50:00,
2013-03-01 20:55:00,32.1,26.3,29.92,NNW,338,4.0,4.0,79,0.00,,SKC,0.00,VWS V13.01,2013-03-02 01:55:00,
2013-03-01 21:00:00,32.1,26.3,29.92,NNW,338,5.1,5.1,79,0.00,,SKC,0.00,VWS V13.01,2013-03-02 02:00:00,
2013-03-01 21:05:00,32.1,26.3,29.92,SE,136,1.3,1.3,79,0.00,,SKC,0.00,VWS V13.01,2013-03-02 02:05:00,
2013-03-01 21:10:00,32.1,26.6,29.92,North,1,9.3,9.3,80,0.00,,SKC,0.00,VWS V13.01,2013-03-02 02:10:00,
2013-03-01 21:15:00,32.1,26.6,29.92,NW,316,0.0,0.0,80,0.00,,SKC,0.00,VWS V13.01,2013-03-02 02:15:00,
2013-03-01 21:20:00,32.0,26.5,29.92,ENE,68,0.6,0.6,80,0.00,,SKC,0.00,VWS V13.01,2013-03-02 02:20:00,
2013-03-01 21:25:00,32.1,26.6,29.92,NE,46,2.6,2.6,80,0.00,,SKC,0.00,VWS V13.01,2013-03-02 02:25:00,
2013-03-01 21:30:00,31.8,26.4,29.92,NE,46,0.0,0.8,80,0.00,,SKC,0.00,VWS V13.01,2013-03-02 02:30:00,
2013-03-01 21:35:00,31.8,26.4,29.92,NNW,338,2.6,2.6,80,0.00,,SKC,0.00,VWS V13.01,2013-03-02 02:35:00,
2013-03-01 21:40:00,31.8,26.4,29.92,NNW,338,2.6,2.6,80,0.00,,SKC,0.00,VWS V13.01,2013-03-02 02:40:00,
2013-03-01 21:45:00,31.8,26.4,29.92,North,1,0.0,0.0,80,0.00,,SKC,0.00,VWS V13.01,2013-03-02 02:45:00,
2013-03-01 21:50:00,32.0,26.8,29.92,North,1,1.7,1.7,81,0.00,,SKC,0.00,VWS V13.01,2013-03-02 02:50:00,
2013-03-01 21:55:00,32.0,26.8,29.92,NNW,338,0.6,6.2,81,0.00,,SKC,0.00,VWS V13.01,2013-03-02 02:55:00,
2013-03-01 22:00:00,32.0,26.8,29.92,NNE,24,2.4,2.4,81,0.00,,SKC,0.00,VWS V13.01,2013-03-02 03:00:00,
2013-03-01 22:05:00,32.0,26.8,29.92,North,1,4.2,4.2,81,0.00,,SKC,0.00,VWS V13.01,2013-03-02 03:05:00,
2013-03-01 22:10:00,31.8,26.6,29.92,North,1,2.0,2.0,81,0.00,,SKC,0.00,VWS V13.01,2013-03-02 03:10:00,
2013-03-01 22:15:00,31.8,26.6,29.92,NNW,338,3.1,3.1,81,0.00,,SKC,0.00,VWS V13.01,2013-03-02 03:15:00,
2013-03-01 22:20:00,31.8,26.6,29.92,North,1,6.4,6.4,81,0.00,,SKC,0.00,VWS V13.01,2013-03-02 03:20:00,
2013-03-01 22:25:00,31.8,26.6,29.92,North,1,3.5,3.5,81,0.00,,SKC,0.00,VWS V13.01,2013-03-02 03:25:00,
2013-03-01 22:30:00,31.8,26.6,29.92,NW,316,5.3,5.3,81,0.00,,SKC,0.00,VWS V13.01,2013-03-02 03:30:00,
2013-03-01 22:35:00,31.8,26.9,29.92,NNW,338,4.6,4.6,82,0.00,,SKC,0.00,VWS V13.01,2013-03-02 03:35:00,
2013-03-01 22:40:00,31.8,26.9,29.92,NW,316,1.3,1.3,82,0.00,,SKC,0.00,VWS V13.01,2013-03-02 03:40:00,
2013-03-01 22:45:00,31.8,26.9,29.92,NNE,24,1.1,1.1,82,0.00,,SKC,0.00,VWS V13.01,2013-03-02 03:45:00,
2013-03-01 22:50:00,31.6,26.8,29.91,ENE,68,4.6,4.6,82,0.00,,SKC,0.00,VWS V13.01,2013-03-02 03:50:00,
2013-03-01 22:55:00,31.8,26.9,29.92,NNW,338,4.2,4.2,82,0.00,,SKC,0.00,VWS V13.01,2013-03-02 03:55:00,
2013-03-01 23:00:00,31.8,26.9,29.92,NE,46,2.0,2.0,82,0.00,,SKC,0.00,VWS V13.01,2013-03-02 04:00:00,
2013-03-01 23:05:00,31.8,26.9,29.92,NNE,24,1.3,1.3,82,0.00,,SKC,0.00,VWS V13.01,2013-03-02 04:05:00,
2013-03-01 23:10:00,31.8,26.9,29.92,NNW,338,5.1,5.1,82,0.00,,SKC,0.00,VWS V13.01,2013-03-02 04:10:00,
2013-03-01 23:15:00,31.8,26.9,29.92,NNW,338,2.9,2.9,82,0.00,,SKC,0.00,VWS V13.01,2013-03-02 04:15:00,
2013-03-01 23:20:00,31.8,26.6,29.91,North,1,0.0,0.0,81,0.00,,SKC,0.00,VWS V13.01,2013-03-02 04:20:00,
2013-03-01 23:25:00,31.8,26.6,29.91,North,1,5.1,5.1,81,0.00,,SKC,0.00,VWS V13.01,2013-03-02 04:25:00,
2013-03-01 23:30:00,31.8,26.6,29.92,NW,316,3.3,3.3,81,0.00,,SKC,0.00,VWS V13.01,2013-03-02 04:30:00,
2013-03-01 23:35:00,31.8,26.6,29.92,North,1,3.1,3.1,81,0.00,,SKC,0.00,VWS V13.01,2013-03-02 04:35:00,
2013-03-01 23:40:00,31.8,26.6,29.92,NNW,338,0.0,0.0,81,0.00,,SKC,0.00,VWS V13.01,2013-03-02 04:40:00,
2013-03-01 23:45:00,31.8,26.6,29.92,North,1,1.5,1.5,81,0.00,,SKC,0.00,VWS V13.01,2013-03-02 04:45:00,
2013-03-01 23:50:00,31.8,26.6,29.91,ENE,68,1.5,1.5,81,0.00,,SKC,0.00,VWS V13.01,2013-03-02 04:50:00,
2013-03-01 23:55:00,31.8,26.6,29.92,NW,316,0.8,0.8,81,0.00,,SKC,0.00,VWS V13.01,2013-03-02 04:55:00,